sensor_id;sensor_type;location;lat;lon;timestamp;P1;durP1;ratioP1;P2;durP2;ratioP2
43118;SDS011;28729;49.838;8.650;2022-12-07T00:03:55;13.77;;;7.70;;
43118;SDS011;28729;49.838;8.650;2022-12-07T00:08:01;14.30;;;7.50;;
43118;SDS011;28729;49.838;8.650;2022-12-07T00:12:03;16.92;;;7.28;;
43118;SDS011;28729;49.838;8.650;2022-12-07T00:16:07;16.23;;;6.80;;
43118;SDS011;28729;49.838;8.650;2022-12-07T00:20:11;17.95;;;6.65;;
43118;SDS011;28729;49.838;8.650;2022-12-07T00:24:13;16.50;;;7.10;;
43118;SDS011;28729;49.838;8.650;2022-12-07T00:28:14;16.15;;;6.82;;
43118;SDS011;28729;49.838;8.650;2022-12-07T00:32:17;15.20;;;7.40;;
43118;SDS011;28729;49.838;8.650;2022-12-07T00:36:20;15.82;;;6.93;;
43118;SDS011;28729;49.838;8.650;2022-12-07T00:40:27;15.90;;;7.05;;
43118;SDS011;28729;49.838;8.650;2022-12-07T00:44:29;12.43;;;6.60;;
43118;SDS011;28729;49.838;8.650;2022-12-07T00:48:31;13.05;;;6.40;;
43118;SDS011;28729;49.838;8.650;2022-12-07T00:52:33;14.83;;;7.17;;
43118;SDS011;28729;49.838;8.650;2022-12-07T00:56:34;13.30;;;6.32;;
43118;SDS011;28729;49.838;8.650;2022-12-07T01:00:37;16.92;;;8.30;;
43118;SDS011;28729;49.838;8.650;2022-12-07T01:04:39;14.35;;;6.68;;
43118;SDS011;28729;49.838;8.650;2022-12-07T01:08:41;16.25;;;6.80;;
43118;SDS011;28729;49.838;8.650;2022-12-07T01:12:42;15.35;;;6.63;;
43118;SDS011;28729;49.838;8.650;2022-12-07T01:16:44;14.05;;;6.95;;
43118;SDS011;28729;49.838;8.650;2022-12-07T01:20:56;13.45;;;7.03;;
43118;SDS011;28729;49.838;8.650;2022-12-07T01:24:59;15.73;;;6.47;;
43118;SDS011;28729;49.838;8.650;2022-12-07T01:29:02;15.95;;;7.43;;
43118;SDS011;28729;49.838;8.650;2022-12-07T01:33:04;14.00;;;6.85;;
43118;SDS011;28729;49.838;8.650;2022-12-07T01:37:06;13.43;;;7.00;;
43118;SDS011;28729;49.838;8.650;2022-12-07T01:41:07;16.88;;;6.95;;
43118;SDS011;28729;49.838;8.650;2022-12-07T01:49:24;14.80;;;7.65;;
43118;SDS011;28729;49.838;8.650;2022-12-07T01:54:03;14.52;;;6.47;;
43118;SDS011;28729;49.838;8.650;2022-12-07T01:58:30;15.60;;;6.63;;
43118;SDS011;28729;49.838;8.650;2022-12-07T02:02:36;15.65;;;7.22;;
43118;SDS011;28729;49.838;8.650;2022-12-07T02:06:42;14.13;;;6.88;;
43118;SDS011;28729;49.838;8.650;2022-12-07T02:10:45;16.90;;;7.43;;
43118;SDS011;28729;49.838;8.650;2022-12-07T02:14:47;14.02;;;6.63;;
43118;SDS011;28729;49.838;8.650;2022-12-07T02:27:56;16.25;;;6.55;;
43118;SDS011;28729;49.838;8.650;2022-12-07T02:32:14;14.27;;;6.13;;
43118;SDS011;28729;49.838;8.650;2022-12-07T02:36:27;15.02;;;7.80;;
43118;SDS011;28729;49.838;8.650;2022-12-07T02:40:33;15.07;;;6.50;;
43118;SDS011;28729;49.838;8.650;2022-12-07T02:44:44;10.95;;;5.32;;
43118;SDS011;28729;49.838;8.650;2022-12-07T02:48:47;16.27;;;6.93;;
43118;SDS011;28729;49.838;8.650;2022-12-07T02:52:51;15.77;;;6.72;;
43118;SDS011;28729;49.838;8.650;2022-12-07T02:57:14;16.80;;;6.53;;
43118;SDS011;28729;49.838;8.650;2022-12-07T03:10:08;15.93;;;7.03;;
43118;SDS011;28729;49.838;8.650;2022-12-07T03:14:22;17.38;;;6.70;;
43118;SDS011;28729;49.838;8.650;2022-12-07T03:18:31;13.27;;;6.63;;
43118;SDS011;28729;49.838;8.650;2022-12-07T03:22:37;20.85;;;7.93;;
43118;SDS011;28729;49.838;8.650;2022-12-07T03:26:41;18.25;;;8.07;;
43118;SDS011;28729;49.838;8.650;2022-12-07T03:30:50;18.40;;;7.80;;
43118;SDS011;28729;49.838;8.650;2022-12-07T03:35:09;17.33;;;7.78;;
43118;SDS011;28729;49.838;8.650;2022-12-07T03:39:22;16.20;;;7.63;;
43118;SDS011;28729;49.838;8.650;2022-12-07T03:43:32;18.08;;;7.10;;
43118;SDS011;28729;49.838;8.650;2022-12-07T03:47:42;18.30;;;7.27;;
43118;SDS011;28729;49.838;8.650;2022-12-07T03:56:19;17.67;;;7.35;;
43118;SDS011;28729;49.838;8.650;2022-12-07T04:00:22;17.30;;;6.95;;
43118;SDS011;28729;49.838;8.650;2022-12-07T04:04:24;18.73;;;7.53;;
43118;SDS011;28729;49.838;8.650;2022-12-07T04:08:26;11.98;;;5.35;;
43118;SDS011;28729;49.838;8.650;2022-12-07T04:12:28;15.52;;;6.82;;
43118;SDS011;28729;49.838;8.650;2022-12-07T04:16:30;18.50;;;7.47;;
43118;SDS011;28729;49.838;8.650;2022-12-07T04:20:31;15.38;;;7.40;;
43118;SDS011;28729;49.838;8.650;2022-12-07T04:24:33;14.95;;;7.65;;
43118;SDS011;28729;49.838;8.650;2022-12-07T04:28:35;18.13;;;6.67;;
43118;SDS011;28729;49.838;8.650;2022-12-07T04:32:37;14.02;;;6.63;;
43118;SDS011;28729;49.838;8.650;2022-12-07T04:36:39;17.33;;;7.18;;
43118;SDS011;28729;49.838;8.650;2022-12-07T04:40:41;15.95;;;6.80;;
43118;SDS011;28729;49.838;8.650;2022-12-07T04:44:42;16.70;;;7.63;;
43118;SDS011;28729;49.838;8.650;2022-12-07T04:48:44;12.63;;;6.47;;
43118;SDS011;28729;49.838;8.650;2022-12-07T04:52:46;17.75;;;7.93;;
43118;SDS011;28729;49.838;8.650;2022-12-07T04:56:47;20.27;;;8.07;;
43118;SDS011;28729;49.838;8.650;2022-12-07T05:00:50;15.48;;;7.15;;
43118;SDS011;28729;49.838;8.650;2022-12-07T05:04:55;16.08;;;6.45;;
43118;SDS011;28729;49.838;8.650;2022-12-07T05:09:05;14.65;;;6.57;;
43118;SDS011;28729;49.838;8.650;2022-12-07T05:13:07;17.92;;;6.30;;
43118;SDS011;28729;49.838;8.650;2022-12-07T05:17:08;12.88;;;6.47;;
43118;SDS011;28729;49.838;8.650;2022-12-07T05:21:10;17.33;;;7.65;;
43118;SDS011;28729;49.838;8.650;2022-12-07T05:25:12;15.80;;;6.93;;
43118;SDS011;28729;49.838;8.650;2022-12-07T05:29:14;15.37;;;7.53;;
43118;SDS011;28729;49.838;8.650;2022-12-07T05:33:17;15.00;;;6.35;;
43118;SDS011;28729;49.838;8.650;2022-12-07T05:37:19;16.27;;;6.70;;
43118;SDS011;28729;49.838;8.650;2022-12-07T05:41:22;17.02;;;6.68;;
43118;SDS011;28729;49.838;8.650;2022-12-07T05:45:43;18.48;;;6.88;;
43118;SDS011;28729;49.838;8.650;2022-12-07T05:53:48;14.23;;;5.83;;
43118;SDS011;28729;49.838;8.650;2022-12-07T05:57:50;12.60;;;6.72;;
43118;SDS011;28729;49.838;8.650;2022-12-07T06:02:11;15.35;;;6.97;;
43118;SDS011;28729;49.838;8.650;2022-12-07T06:06:15;15.60;;;7.32;;
43118;SDS011;28729;49.838;8.650;2022-12-07T06:10:20;14.85;;;6.95;;
43118;SDS011;28729;49.838;8.650;2022-12-07T06:14:24;16.23;;;8.07;;
43118;SDS011;28729;49.838;8.650;2022-12-07T06:18:27;15.85;;;6.65;;
43118;SDS011;28729;49.838;8.650;2022-12-07T06:27:09;14.55;;;7.00;;
43118;SDS011;28729;49.838;8.650;2022-12-07T06:36:37;14.23;;;7.38;;
43118;SDS011;28729;49.838;8.650;2022-12-07T06:40:39;17.53;;;8.57;;
43118;SDS011;28729;49.838;8.650;2022-12-07T06:44:41;14.98;;;6.15;;
43118;SDS011;28729;49.838;8.650;2022-12-07T06:48:43;15.90;;;7.18;;
43118;SDS011;28729;49.838;8.650;2022-12-07T06:52:45;11.82;;;6.07;;
43118;SDS011;28729;49.838;8.650;2022-12-07T06:56:46;14.70;;;6.55;;
43118;SDS011;28729;49.838;8.650;2022-12-07T07:00:48;17.83;;;7.45;;
43118;SDS011;28729;49.838;8.650;2022-12-07T07:04:51;16.95;;;6.85;;
43118;SDS011;28729;49.838;8.650;2022-12-07T07:08:53;16.42;;;7.10;;
43118;SDS011;28729;49.838;8.650;2022-12-07T07:12:55;17.60;;;6.82;;
43118;SDS011;28729;49.838;8.650;2022-12-07T07:20:59;15.18;;;6.50;;
43118;SDS011;28729;49.838;8.650;2022-12-07T07:25:05;14.13;;;6.47;;
43118;SDS011;28729;49.838;8.650;2022-12-07T07:29:07;14.77;;;6.87;;
43118;SDS011;28729;49.838;8.650;2022-12-07T07:33:09;15.30;;;7.15;;
43118;SDS011;28729;49.838;8.650;2022-12-07T07:37:11;18.10;;;7.35;;
43118;SDS011;28729;49.838;8.650;2022-12-07T07:41:21;16.10;;;7.68;;
43118;SDS011;28729;49.838;8.650;2022-12-07T07:45:24;13.95;;;6.63;;
43118;SDS011;28729;49.838;8.650;2022-12-07T07:49:27;18.25;;;7.72;;
43118;SDS011;28729;49.838;8.650;2022-12-07T07:53:29;14.82;;;7.03;;
43118;SDS011;28729;49.838;8.650;2022-12-07T07:57:30;14.88;;;6.45;;
43118;SDS011;28729;49.838;8.650;2022-12-07T08:01:32;15.15;;;7.05;;
43118;SDS011;28729;49.838;8.650;2022-12-07T08:05:34;13.50;;;7.40;;
43118;SDS011;28729;49.838;8.650;2022-12-07T08:09:38;13.52;;;6.70;;
43118;SDS011;28729;49.838;8.650;2022-12-07T08:13:47;13.55;;;7.55;;
43118;SDS011;28729;49.838;8.650;2022-12-07T08:17:49;15.73;;;6.90;;
43118;SDS011;28729;49.838;8.650;2022-12-07T08:21:51;19.08;;;7.90;;
43118;SDS011;28729;49.838;8.650;2022-12-07T08:25:52;13.98;;;6.80;;
43118;SDS011;28729;49.838;8.650;2022-12-07T08:29:54;15.77;;;6.97;;
43118;SDS011;28729;49.838;8.650;2022-12-07T08:33:56;16.38;;;8.38;;
43118;SDS011;28729;49.838;8.650;2022-12-07T08:37:58;17.73;;;7.30;;
43118;SDS011;28729;49.838;8.650;2022-12-07T08:42:00;16.38;;;6.90;;
43118;SDS011;28729;49.838;8.650;2022-12-07T08:46:13;13.52;;;7.15;;
43118;SDS011;28729;49.838;8.650;2022-12-07T08:50:54;16.35;;;6.78;;
43118;SDS011;28729;49.838;8.650;2022-12-07T08:54:56;16.58;;;7.88;;
43118;SDS011;28729;49.838;8.650;2022-12-07T08:58:58;14.52;;;6.72;;
43118;SDS011;28729;49.838;8.650;2022-12-07T09:03:03;15.65;;;7.75;;
43118;SDS011;28729;49.838;8.650;2022-12-07T09:07:05;15.32;;;7.53;;
43118;SDS011;28729;49.838;8.650;2022-12-07T09:11:07;16.13;;;7.10;;
43118;SDS011;28729;49.838;8.650;2022-12-07T09:15:09;19.77;;;7.63;;
43118;SDS011;28729;49.838;8.650;2022-12-07T09:19:10;15.52;;;7.35;;
43118;SDS011;28729;49.838;8.650;2022-12-07T09:23:12;13.45;;;7.15;;
43118;SDS011;28729;49.838;8.650;2022-12-07T09:27:14;15.77;;;7.07;;
43118;SDS011;28729;49.838;8.650;2022-12-07T09:31:15;15.13;;;7.38;;
43118;SDS011;28729;49.838;8.650;2022-12-07T09:35:26;17.52;;;7.45;;
43118;SDS011;28729;49.838;8.650;2022-12-07T09:39:29;17.00;;;7.60;;
43118;SDS011;28729;49.838;8.650;2022-12-07T09:43:31;16.98;;;6.97;;
43118;SDS011;28729;49.838;8.650;2022-12-07T09:47:32;15.88;;;7.78;;
43118;SDS011;28729;49.838;8.650;2022-12-07T09:51:35;16.27;;;8.23;;
43118;SDS011;28729;49.838;8.650;2022-12-07T09:55:37;15.02;;;7.85;;
43118;SDS011;28729;49.838;8.650;2022-12-07T09:59:40;15.45;;;7.40;;
43118;SDS011;28729;49.838;8.650;2022-12-07T10:03:47;14.68;;;7.15;;
43118;SDS011;28729;49.838;8.650;2022-12-07T10:07:51;15.75;;;8.23;;
43118;SDS011;28729;49.838;8.650;2022-12-07T10:12:02;14.30;;;7.55;;
43118;SDS011;28729;49.838;8.650;2022-12-07T10:20:26;14.13;;;7.47;;
43118;SDS011;28729;49.838;8.650;2022-12-07T10:24:28;16.23;;;7.83;;
43118;SDS011;28729;49.838;8.650;2022-12-07T10:28:33;15.23;;;8.03;;
43118;SDS011;28729;49.838;8.650;2022-12-07T10:32:42;15.48;;;7.30;;
43118;SDS011;28729;49.838;8.650;2022-12-07T10:36:44;14.55;;;7.35;;
43118;SDS011;28729;49.838;8.650;2022-12-07T10:40:46;16.70;;;7.53;;
43118;SDS011;28729;49.838;8.650;2022-12-07T10:44:49;15.68;;;7.97;;
43118;SDS011;28729;49.838;8.650;2022-12-07T10:53:24;13.73;;;7.10;;
43118;SDS011;28729;49.838;8.650;2022-12-07T10:57:50;15.90;;;8.23;;
43118;SDS011;28729;49.838;8.650;2022-12-07T11:06:37;17.00;;;8.18;;
43118;SDS011;28729;49.838;8.650;2022-12-07T11:27:37;15.82;;;7.95;;
43118;SDS011;28729;49.838;8.650;2022-12-07T11:36:42;14.57;;;7.57;;
43118;SDS011;28729;49.838;8.650;2022-12-07T11:40:48;16.63;;;7.95;;
43118;SDS011;28729;49.838;8.650;2022-12-07T12:02:58;7.70;;;3.70;;
43118;SDS011;28729;49.838;8.650;2022-12-07T12:07:01;14.60;;;8.25;;
43118;SDS011;28729;49.838;8.650;2022-12-07T12:32:44;13.23;;;6.47;;
43118;SDS011;28729;49.838;8.650;2022-12-07T12:36:46;11.45;;;6.13;;
43118;SDS011;28729;49.838;8.650;2022-12-07T12:40:48;13.43;;;7.07;;
43118;SDS011;28729;49.838;8.650;2022-12-07T12:53:23;10.70;;;5.25;;
43118;SDS011;28729;49.838;8.650;2022-12-07T12:57:27;10.00;;;5.07;;
43118;SDS011;28729;49.838;8.650;2022-12-07T13:01:38;9.77;;;4.60;;
43118;SDS011;28729;49.838;8.650;2022-12-07T13:05:41;10.77;;;5.15;;
43118;SDS011;28729;49.838;8.650;2022-12-07T13:09:44;12.18;;;5.03;;
43118;SDS011;28729;49.838;8.650;2022-12-07T13:17:58;11.32;;;4.15;;
43118;SDS011;28729;49.838;8.650;2022-12-07T13:22:02;9.27;;;4.47;;
43118;SDS011;28729;49.838;8.650;2022-12-07T13:30:20;8.45;;;3.40;;
43118;SDS011;28729;49.838;8.650;2022-12-07T13:34:30;8.18;;;3.53;;
43118;SDS011;28729;49.838;8.650;2022-12-07T13:38:48;9.38;;;2.90;;
43118;SDS011;28729;49.838;8.650;2022-12-07T13:43:03;8.45;;;3.72;;
43118;SDS011;28729;49.838;8.650;2022-12-07T13:47:27;12.60;;;4.70;;
43118;SDS011;28729;49.838;8.650;2022-12-07T13:51:37;6.95;;;3.35;;
43118;SDS011;28729;49.838;8.650;2022-12-07T13:55:44;5.90;;;3.92;;
43118;SDS011;28729;49.838;8.650;2022-12-07T13:59:54;10.90;;;3.42;;
43118;SDS011;28729;49.838;8.650;2022-12-07T14:03:56;11.95;;;4.43;;
43118;SDS011;28729;49.838;8.650;2022-12-07T14:12:19;12.60;;;3.70;;
43118;SDS011;28729;49.838;8.650;2022-12-07T14:16:28;7.10;;;3.25;;
43118;SDS011;28729;49.838;8.650;2022-12-07T14:20:36;9.45;;;3.60;;
43118;SDS011;28729;49.838;8.650;2022-12-07T14:24:42;9.43;;;3.88;;
43118;SDS011;28729;49.838;8.650;2022-12-07T14:28:45;11.15;;;4.28;;
43118;SDS011;28729;49.838;8.650;2022-12-07T14:32:57;8.65;;;4.13;;
43118;SDS011;28729;49.838;8.650;2022-12-07T14:37:01;11.95;;;4.03;;
43118;SDS011;28729;49.838;8.650;2022-12-07T14:41:03;9.90;;;3.30;;
43118;SDS011;28729;49.838;8.650;2022-12-07T14:45:26;5.38;;;2.33;;
43118;SDS011;28729;49.838;8.650;2022-12-07T14:49:27;8.10;;;3.40;;
43118;SDS011;28729;49.838;8.650;2022-12-07T14:53:35;6.10;;;1.65;;
43118;SDS011;28729;49.838;8.650;2022-12-07T14:57:44;5.47;;;2.10;;
43118;SDS011;28729;49.838;8.650;2022-12-07T15:01:45;5.90;;;1.83;;
43118;SDS011;28729;49.838;8.650;2022-12-07T15:05:47;5.55;;;2.20;;
43118;SDS011;28729;49.838;8.650;2022-12-07T15:09:49;4.37;;;2.40;;
43118;SDS011;28729;49.838;8.650;2022-12-07T15:13:51;3.65;;;2.20;;
43118;SDS011;28729;49.838;8.650;2022-12-07T15:18:13;5.63;;;1.90;;
43118;SDS011;28729;49.838;8.650;2022-12-07T15:22:15;5.88;;;1.52;;
43118;SDS011;28729;49.838;8.650;2022-12-07T15:26:17;2.70;;;1.35;;
43118;SDS011;28729;49.838;8.650;2022-12-07T15:30:18;3.33;;;1.50;;
43118;SDS011;28729;49.838;8.650;2022-12-07T15:34:26;6.63;;;1.70;;
43118;SDS011;28729;49.838;8.650;2022-12-07T15:38:39;4.63;;;2.30;;
43118;SDS011;28729;49.838;8.650;2022-12-07T15:43:01;8.20;;;2.58;;
43118;SDS011;28729;49.838;8.650;2022-12-07T15:47:04;6.47;;;2.17;;
43118;SDS011;28729;49.838;8.650;2022-12-07T15:51:07;4.03;;;1.38;;
43118;SDS011;28729;49.838;8.650;2022-12-07T15:55:10;4.60;;;1.90;;
43118;SDS011;28729;49.838;8.650;2022-12-07T15:59:11;6.70;;;2.10;;
43118;SDS011;28729;49.838;8.650;2022-12-07T16:03:14;4.80;;;1.98;;
43118;SDS011;28729;49.838;8.650;2022-12-07T16:07:17;6.10;;;2.65;;
43118;SDS011;28729;49.838;8.650;2022-12-07T16:11:19;4.88;;;1.85;;
43118;SDS011;28729;49.838;8.650;2022-12-07T16:15:21;6.13;;;1.70;;
43118;SDS011;28729;49.838;8.650;2022-12-07T16:19:25;3.90;;;1.70;;
43118;SDS011;28729;49.838;8.650;2022-12-07T16:23:27;5.68;;;1.92;;
43118;SDS011;28729;49.838;8.650;2022-12-07T16:27:29;3.53;;;1.60;;
43118;SDS011;28729;49.838;8.650;2022-12-07T16:31:31;5.35;;;2.00;;
43118;SDS011;28729;49.838;8.650;2022-12-07T16:35:32;5.90;;;2.20;;
43118;SDS011;28729;49.838;8.650;2022-12-07T16:39:34;6.63;;;2.55;;
43118;SDS011;28729;49.838;8.650;2022-12-07T16:43:36;9.57;;;3.03;;
43118;SDS011;28729;49.838;8.650;2022-12-07T16:47:38;8.27;;;4.17;;
43118;SDS011;28729;49.838;8.650;2022-12-07T16:51:40;11.05;;;2.97;;
43118;SDS011;28729;49.838;8.650;2022-12-07T16:55:44;6.47;;;2.40;;
43118;SDS011;28729;49.838;8.650;2022-12-07T16:59:46;4.18;;;2.50;;
43118;SDS011;28729;49.838;8.650;2022-12-07T17:03:48;11.90;;;2.65;;
43118;SDS011;28729;49.838;8.650;2022-12-07T17:07:50;5.23;;;2.73;;
43118;SDS011;28729;49.838;8.650;2022-12-07T17:11:52;6.22;;;2.55;;
43118;SDS011;28729;49.838;8.650;2022-12-07T17:15:55;9.60;;;2.90;;
43118;SDS011;28729;49.838;8.650;2022-12-07T17:20:00;9.68;;;4.28;;
43118;SDS011;28729;49.838;8.650;2022-12-07T17:24:03;13.90;;;6.07;;
43118;SDS011;28729;49.838;8.650;2022-12-07T17:28:06;11.05;;;5.32;;
43118;SDS011;28729;49.838;8.650;2022-12-07T17:32:08;8.73;;;4.20;;
43118;SDS011;28729;49.838;8.650;2022-12-07T17:36:11;8.05;;;4.60;;
43118;SDS011;28729;49.838;8.650;2022-12-07T17:44:24;10.25;;;3.95;;
43118;SDS011;28729;49.838;8.650;2022-12-07T17:48:28;11.27;;;4.65;;
43118;SDS011;28729;49.838;8.650;2022-12-07T17:52:30;9.90;;;4.75;;
43118;SDS011;28729;49.838;8.650;2022-12-07T17:56:50;11.95;;;5.78;;
43118;SDS011;28729;49.838;8.650;2022-12-07T18:00:52;8.10;;;4.53;;
43118;SDS011;28729;49.838;8.650;2022-12-07T18:04:54;8.65;;;4.13;;
43118;SDS011;28729;49.838;8.650;2022-12-07T18:08:56;10.95;;;5.05;;
43118;SDS011;28729;49.838;8.650;2022-12-07T18:12:58;11.73;;;5.43;;
43118;SDS011;28729;49.838;8.650;2022-12-07T18:17:18;13.52;;;5.38;;
43118;SDS011;28729;49.838;8.650;2022-12-07T18:21:21;11.95;;;6.10;;
43118;SDS011;28729;49.838;8.650;2022-12-07T18:25:24;9.25;;;5.47;;
43118;SDS011;28729;49.838;8.650;2022-12-07T18:29:26;9.45;;;4.20;;
43118;SDS011;28729;49.838;8.650;2022-12-07T18:33:28;9.20;;;4.25;;
43118;SDS011;28729;49.838;8.650;2022-12-07T18:37:29;11.20;;;5.15;;
43118;SDS011;28729;49.838;8.650;2022-12-07T18:41:31;13.55;;;5.00;;
43118;SDS011;28729;49.838;8.650;2022-12-07T18:45:34;11.03;;;5.30;;
43118;SDS011;28729;49.838;8.650;2022-12-07T18:49:36;13.07;;;6.53;;
43118;SDS011;28729;49.838;8.650;2022-12-07T18:53:39;12.50;;;5.78;;
43118;SDS011;28729;49.838;8.650;2022-12-07T18:57:41;11.13;;;5.60;;
43118;SDS011;28729;49.838;8.650;2022-12-07T19:01:44;13.75;;;5.90;;
43118;SDS011;28729;49.838;8.650;2022-12-07T19:05:53;10.80;;;5.60;;
43118;SDS011;28729;49.838;8.650;2022-12-07T19:09:58;14.40;;;6.18;;
43118;SDS011;28729;49.838;8.650;2022-12-07T19:14:00;14.15;;;6.68;;
43118;SDS011;28729;49.838;8.650;2022-12-07T19:18:01;11.63;;;5.80;;
43118;SDS011;28729;49.838;8.650;2022-12-07T19:22:03;13.95;;;6.78;;
43118;SDS011;28729;49.838;8.650;2022-12-07T19:26:06;13.07;;;6.53;;
43118;SDS011;28729;49.838;8.650;2022-12-07T19:30:08;11.90;;;6.45;;
43118;SDS011;28729;49.838;8.650;2022-12-07T19:34:12;11.60;;;5.72;;
43118;SDS011;28729;49.838;8.650;2022-12-07T19:38:16;12.90;;;6.57;;
43118;SDS011;28729;49.838;8.650;2022-12-07T19:42:18;13.45;;;6.45;;
43118;SDS011;28729;49.838;8.650;2022-12-07T19:46:20;10.55;;;5.88;;
43118;SDS011;28729;49.838;8.650;2022-12-07T19:50:21;12.10;;;6.33;;
43118;SDS011;28729;49.838;8.650;2022-12-07T19:54:24;11.35;;;6.03;;
43118;SDS011;28729;49.838;8.650;2022-12-07T19:58:27;14.95;;;6.45;;
43118;SDS011;28729;49.838;8.650;2022-12-07T20:02:31;11.63;;;5.95;;
43118;SDS011;28729;49.838;8.650;2022-12-07T20:06:33;14.68;;;6.03;;
43118;SDS011;28729;49.838;8.650;2022-12-07T20:10:37;14.38;;;7.13;;
43118;SDS011;28729;49.838;8.650;2022-12-07T20:14:39;12.18;;;6.10;;
43118;SDS011;28729;49.838;8.650;2022-12-07T20:18:41;15.10;;;6.47;;
43118;SDS011;28729;49.838;8.650;2022-12-07T20:22:42;13.93;;;6.63;;
43118;SDS011;28729;49.838;8.650;2022-12-07T20:26:44;13.85;;;6.53;;
43118;SDS011;28729;49.838;8.650;2022-12-07T20:30:50;13.75;;;7.05;;
43118;SDS011;28729;49.838;8.650;2022-12-07T20:34:53;12.85;;;6.68;;
43118;SDS011;28729;49.838;8.650;2022-12-07T20:38:57;11.73;;;6.25;;
43118;SDS011;28729;49.838;8.650;2022-12-07T20:43:01;14.57;;;6.78;;
43118;SDS011;28729;49.838;8.650;2022-12-07T20:47:03;14.15;;;7.80;;
43118;SDS011;28729;49.838;8.650;2022-12-07T20:55:07;15.85;;;7.82;;
43118;SDS011;28729;49.838;8.650;2022-12-07T20:59:11;15.55;;;7.53;;
43118;SDS011;28729;49.838;8.650;2022-12-07T21:03:14;17.13;;;8.00;;
43118;SDS011;28729;49.838;8.650;2022-12-07T21:07:15;20.27;;;8.27;;
43118;SDS011;28729;49.838;8.650;2022-12-07T21:11:18;15.82;;;8.07;;
43118;SDS011;28729;49.838;8.650;2022-12-07T21:15:21;20.08;;;9.40;;
43118;SDS011;28729;49.838;8.650;2022-12-07T21:19:23;16.35;;;8.52;;
43118;SDS011;28729;49.838;8.650;2022-12-07T21:23:25;22.65;;;9.35;;
43118;SDS011;28729;49.838;8.650;2022-12-07T21:27:27;18.52;;;9.05;;
43118;SDS011;28729;49.838;8.650;2022-12-07T21:31:28;17.25;;;8.98;;
43118;SDS011;28729;49.838;8.650;2022-12-07T21:35:30;19.10;;;9.03;;
43118;SDS011;28729;49.838;8.650;2022-12-07T21:39:32;17.95;;;8.90;;
43118;SDS011;28729;49.838;8.650;2022-12-07T21:43:33;20.20;;;9.52;;
43118;SDS011;28729;49.838;8.650;2022-12-07T21:47:35;18.98;;;9.38;;
43118;SDS011;28729;49.838;8.650;2022-12-07T21:51:37;19.60;;;9.10;;
43118;SDS011;28729;49.838;8.650;2022-12-07T21:59:42;18.42;;;8.10;;
43118;SDS011;28729;49.838;8.650;2022-12-07T22:03:44;20.80;;;9.90;;
43118;SDS011;28729;49.838;8.650;2022-12-07T22:07:47;19.73;;;9.27;;
43118;SDS011;28729;49.838;8.650;2022-12-07T22:11:48;18.23;;;8.00;;
43118;SDS011;28729;49.838;8.650;2022-12-07T22:15:50;19.02;;;9.65;;
43118;SDS011;28729;49.838;8.650;2022-12-07T22:19:52;20.60;;;10.20;;
43118;SDS011;28729;49.838;8.650;2022-12-07T22:23:54;18.15;;;9.73;;
43118;SDS011;28729;49.838;8.650;2022-12-07T22:27:57;19.50;;;9.13;;
43118;SDS011;28729;49.838;8.650;2022-12-07T22:31:58;18.73;;;9.27;;
43118;SDS011;28729;49.838;8.650;2022-12-07T22:36:09;15.75;;;9.07;;
43118;SDS011;28729;49.838;8.650;2022-12-07T22:40:12;19.58;;;9.13;;
43118;SDS011;28729;49.838;8.650;2022-12-07T22:44:14;20.02;;;8.70;;
43118;SDS011;28729;49.838;8.650;2022-12-07T22:48:15;23.35;;;10.63;;
43118;SDS011;28729;49.838;8.650;2022-12-07T22:52:17;17.88;;;9.52;;
43118;SDS011;28729;49.838;8.650;2022-12-07T22:56:19;22.88;;;10.20;;
43118;SDS011;28729;49.838;8.650;2022-12-07T23:00:21;23.17;;;10.30;;
43118;SDS011;28729;49.838;8.650;2022-12-07T23:04:23;19.87;;;10.40;;
43118;SDS011;28729;49.838;8.650;2022-12-07T23:08:25;30.80;;;12.07;;
43118;SDS011;28729;49.838;8.650;2022-12-07T23:12:27;24.98;;;12.18;;
43118;SDS011;28729;49.838;8.650;2022-12-07T23:16:47;25.83;;;11.88;;
43118;SDS011;28729;49.838;8.650;2022-12-07T23:20:49;25.45;;;10.90;;
43118;SDS011;28729;49.838;8.650;2022-12-07T23:24:50;21.92;;;11.13;;
43118;SDS011;28729;49.838;8.650;2022-12-07T23:28:52;24.20;;;11.10;;
43118;SDS011;28729;49.838;8.650;2022-12-07T23:32:54;20.80;;;10.30;;
43118;SDS011;28729;49.838;8.650;2022-12-07T23:36:56;20.20;;;9.70;;
43118;SDS011;28729;49.838;8.650;2022-12-07T23:40:57;26.55;;;10.27;;
43118;SDS011;28729;49.838;8.650;2022-12-07T23:44:59;25.60;;;11.55;;
43118;SDS011;28729;49.838;8.650;2022-12-07T23:49:02;23.23;;;10.95;;
43118;SDS011;28729;49.838;8.650;2022-12-07T23:53:05;22.98;;;11.02;;
43118;SDS011;28729;49.838;8.650;2022-12-07T23:57:06;19.65;;;11.00;;
